createdAt,value
2023-04-20T00:01:30.506Z,5.80
2023-04-20T00:03:57.187Z,5.40
2023-04-20T00:06:26.589Z,5.13
2023-04-20T00:08:55.460Z,5.70
2023-04-20T00:11:22.002Z,5.77
2023-04-20T00:13:48.406Z,5.70
2023-04-20T00:16:16.139Z,5.90
2023-04-20T00:18:45.777Z,6.20
2023-04-20T00:21:13.810Z,6.20
2023-04-20T00:23:40.655Z,5.60
2023-04-20T00:26:07.439Z,16.03
2023-04-20T00:28:33.962Z,11.17
2023-04-20T00:31:00.510Z,9.43
2023-04-20T00:33:27.036Z,8.97
2023-04-20T00:35:53.404Z,7.50
2023-04-20T00:38:19.745Z,7.53
2023-04-20T00:40:46.291Z,8.00
2023-04-20T00:43:14.000Z,8.07
2023-04-20T00:45:40.784Z,8.00
2023-04-20T00:48:07.641Z,7.57
2023-04-20T00:50:34.636Z,7.77
2023-04-20T00:53:03.216Z,6.63
2023-04-20T00:55:31.009Z,6.33
2023-04-20T00:57:57.660Z,5.90
2023-04-20T01:00:40.588Z,5.73
2023-04-20T01:03:08.046Z,6.70
2023-04-20T01:05:35.061Z,6.20
2023-04-20T01:08:03.000Z,6.60
2023-04-20T01:10:29.845Z,6.23
2023-04-20T01:12:57.021Z,6.03
2023-04-20T01:15:23.432Z,6.30
2023-04-20T01:17:51.182Z,5.17
2023-04-20T01:20:17.768Z,5.83
2023-04-20T01:22:46.243Z,5.57
2023-04-20T01:25:12.589Z,6.20
2023-04-20T01:27:39.015Z,6.40
2023-04-20T01:30:07.121Z,6.00
2023-04-20T01:32:34.668Z,5.47
2023-04-20T01:35:02.517Z,6.77
2023-04-20T01:37:29.357Z,6.30
2023-04-20T01:39:56.365Z,6.80
2023-04-20T01:42:23.437Z,6.33
2023-04-20T01:44:49.948Z,6.07
2023-04-20T01:47:16.347Z,6.27
2023-04-20T01:49:42.731Z,5.80
2023-04-20T01:52:09.983Z,5.80
2023-04-20T01:54:36.400Z,6.70
2023-04-20T01:57:03.211Z,6.17
2023-04-20T01:59:29.962Z,5.90
2023-04-20T02:01:56.437Z,5.87
2023-04-20T02:04:23.221Z,6.40
2023-04-20T02:06:49.530Z,6.03
2023-04-20T02:09:16.244Z,5.80
2023-04-20T02:11:42.776Z,6.03
2023-04-20T02:14:09.625Z,6.20
2023-04-20T02:16:37.090Z,7.87
2023-04-20T02:19:03.631Z,6.63
2023-04-20T02:21:30.049Z,6.70
2023-04-20T02:23:56.741Z,6.33
2023-04-20T02:26:25.662Z,6.77
2023-04-20T02:28:52.102Z,6.20
2023-04-20T02:31:19.127Z,6.73
2023-04-20T02:33:45.671Z,6.87
2023-04-20T02:36:12.059Z,6.40
2023-04-20T02:38:38.451Z,6.83
2023-04-20T02:41:04.986Z,6.13
2023-04-20T02:43:31.381Z,7.20
2023-04-20T02:45:57.804Z,6.17
2023-04-20T02:48:24.292Z,6.70
2023-04-20T02:50:50.789Z,6.27
2023-04-20T02:53:17.514Z,7.23
2023-04-20T02:55:43.885Z,7.17
2023-04-20T02:58:10.379Z,6.60
2023-04-20T03:00:37.042Z,7.10
2023-04-20T03:03:03.925Z,6.80
2023-04-20T03:05:30.537Z,6.90
2023-04-20T03:07:56.884Z,6.90
2023-04-20T03:10:23.749Z,6.87
2023-04-20T03:12:50.165Z,6.67
2023-04-20T03:15:16.573Z,6.23
2023-04-20T03:17:42.980Z,6.67
2023-04-20T03:20:09.567Z,6.47
2023-04-20T03:22:35.939Z,6.70
2023-04-20T03:25:02.620Z,6.50
2023-04-20T03:27:29.160Z,6.30
2023-04-20T03:29:55.487Z,7.57
2023-04-20T03:32:22.284Z,7.57
2023-04-20T03:34:48.713Z,6.83
2023-04-20T03:37:15.243Z,6.97
2023-04-20T03:39:41.669Z,6.40
2023-04-20T03:42:08.105Z,6.87
2023-04-20T03:44:34.623Z,6.97
2023-04-20T03:47:01.308Z,7.47
2023-04-20T03:49:30.117Z,8.53
2023-04-20T03:51:56.505Z,7.73
2023-04-20T03:54:23.206Z,6.93
2023-04-20T03:56:49.881Z,6.50
2023-04-20T03:59:16.785Z,6.90
2023-04-20T04:01:43.347Z,7.60
2023-04-20T04:04:10.088Z,6.63
2023-04-20T04:06:36.877Z,6.97
2023-04-20T04:09:03.536Z,7.33
2023-04-20T04:11:30.390Z,8.27
2023-04-20T04:13:58.590Z,7.30
2023-04-20T04:16:25.423Z,7.53
2023-04-20T04:18:51.858Z,7.70
2023-04-20T04:21:18.269Z,7.60
2023-04-20T04:23:44.632Z,7.67
2023-04-20T04:26:11.052Z,8.07
2023-04-20T04:28:37.579Z,7.43
2023-04-20T04:31:04.069Z,7.77
2023-04-20T04:33:30.520Z,7.90
2023-04-20T04:35:57.257Z,8.50
2023-04-20T04:38:23.748Z,8.43
2023-04-20T04:40:50.262Z,8.40
2023-04-20T04:43:16.600Z,8.30
2023-04-20T04:45:42.959Z,7.83
2023-04-20T04:48:09.641Z,8.03
2023-04-20T04:50:36.172Z,8.43
2023-04-20T04:53:02.701Z,9.33
2023-04-20T04:55:29.422Z,8.57
2023-04-20T04:57:55.897Z,9.27
2023-04-20T05:00:22.484Z,9.03
2023-04-20T05:02:49.198Z,8.70
2023-04-20T05:05:15.691Z,7.70
2023-04-20T05:07:42.098Z,7.27
2023-04-20T05:10:09.144Z,7.80
2023-04-20T05:12:35.884Z,7.87
2023-04-20T05:15:02.459Z,7.40
2023-04-20T05:17:28.886Z,7.80
2023-04-20T05:19:55.480Z,7.97
2023-04-20T05:22:21.861Z,7.03
2023-04-20T05:24:48.216Z,8.10
2023-04-20T05:27:15.939Z,8.07
2023-04-20T05:29:42.508Z,8.03
2023-04-20T05:32:09.049Z,9.20
2023-04-20T05:34:35.677Z,7.97
2023-04-20T05:37:04.657Z,8.17
2023-04-20T05:39:31.164Z,7.93
2023-04-20T05:41:57.609Z,8.07
2023-04-20T05:44:24.115Z,7.28
2023-04-20T05:46:50.655Z,7.93
2023-04-20T05:49:17.639Z,7.70
2023-04-20T05:51:44.540Z,6.65
2023-04-20T05:54:10.949Z,8.00
2023-04-20T05:56:37.682Z,6.43
2023-04-20T05:59:04.784Z,7.53
2023-04-20T06:01:31.132Z,8.07
2023-04-20T06:03:57.919Z,8.18
2023-04-20T06:06:24.399Z,7.22
2023-04-20T06:08:51.052Z,8.57
2023-04-20T06:11:17.509Z,7.00
2023-04-20T06:13:43.957Z,8.75
2023-04-20T06:16:10.370Z,7.13
2023-04-20T06:18:37.277Z,8.27
2023-04-20T06:21:04.631Z,9.15
2023-04-20T06:23:31.204Z,8.32
2023-04-20T06:25:57.667Z,7.45
2023-04-20T06:28:24.392Z,8.57
2023-04-20T06:30:50.811Z,8.07
2023-04-20T06:33:17.238Z,7.78
2023-04-20T06:35:43.908Z,7.60
2023-04-20T06:38:10.277Z,8.05
2023-04-20T06:40:37.157Z,7.22
2023-04-20T06:43:03.933Z,7.20
2023-04-20T06:45:31.797Z,7.80
2023-04-20T06:48:00.746Z,7.80
2023-04-20T06:50:27.571Z,9.23
2023-04-20T06:52:54.027Z,8.75
2023-04-20T06:55:20.464Z,11.55
2023-04-20T06:57:48.732Z,9.48
2023-04-20T07:00:15.741Z,9.25
2023-04-20T07:02:43.819Z,9.20
2023-04-20T07:05:10.680Z,8.77
2023-04-20T07:07:37.639Z,8.02
2023-04-20T07:10:04.301Z,8.32
2023-04-20T07:12:30.844Z,9.40
2023-04-20T07:14:57.237Z,8.85
2023-04-20T07:17:27.836Z,8.20
2023-04-20T07:19:55.343Z,9.77
2023-04-20T07:22:22.492Z,9.30
2023-04-20T07:24:49.492Z,9.02
2023-04-20T07:27:19.296Z,9.23
2023-04-20T07:29:45.799Z,9.77
2023-04-20T07:32:12.704Z,9.60
2023-04-20T07:34:39.699Z,9.82
2023-04-20T07:37:06.239Z,10.15
2023-04-20T07:39:35.081Z,9.75
2023-04-20T07:42:02.924Z,9.88
2023-04-20T07:44:32.647Z,9.82
2023-04-20T07:46:59.126Z,8.32
2023-04-20T07:49:25.927Z,8.98
2023-04-20T07:52:03.183Z,7.35
2023-04-20T07:54:35.938Z,7.85
2023-04-20T07:57:02.827Z,9.20
2023-04-20T07:59:29.981Z,8.73
2023-04-20T08:02:01.245Z,8.20
2023-04-20T08:04:28.275Z,8.43
2023-04-20T08:06:54.854Z,8.75
2023-04-20T08:09:21.805Z,8.23
2023-04-20T08:11:48.847Z,8.32
2023-04-20T08:14:15.777Z,8.18
2023-04-20T08:16:42.936Z,8.77
2023-04-20T08:19:09.476Z,8.07
2023-04-20T08:21:40.274Z,8.75
2023-04-20T08:24:08.051Z,8.68
2023-04-20T08:26:35.180Z,10.25
2023-04-20T08:29:03.482Z,8.68
2023-04-20T08:31:29.926Z,9.45
2023-04-20T08:33:57.842Z,10.07
2023-04-20T08:36:24.383Z,8.98
2023-04-20T08:38:57.174Z,10.43
2023-04-20T08:41:26.148Z,9.45
2023-04-20T08:43:52.596Z,10.70
2023-04-20T08:46:21.069Z,9.27
2023-04-20T08:48:49.805Z,10.27
2023-04-20T08:51:16.262Z,10.25
2023-04-20T08:53:42.732Z,10.02
2023-04-20T08:56:09.737Z,9.73
2023-04-20T08:58:36.245Z,10.98
2023-04-20T09:01:02.653Z,10.00
2023-04-20T09:03:55.422Z,9.52
2023-04-20T09:06:23.306Z,8.65
2023-04-20T09:08:50.327Z,9.63
2023-04-20T09:11:28.326Z,8.82
2023-04-20T09:13:58.903Z,8.15
2023-04-20T09:16:26.418Z,8.35
2023-04-20T09:18:54.883Z,8.48
2023-04-20T09:21:21.694Z,7.95
2023-04-20T09:24:05.858Z,8.70
2023-04-20T09:26:33.503Z,8.88
2023-04-20T09:29:03.451Z,7.53
2023-04-20T09:31:29.884Z,8.07
2023-04-20T09:34:03.600Z,8.25
2023-04-20T09:36:44.493Z,7.28
2023-04-20T09:39:18.934Z,8.40
2023-04-20T09:41:45.791Z,8.20
2023-04-20T09:44:15.731Z,7.63
2023-04-20T09:46:46.024Z,8.82
2023-04-20T09:49:15.621Z,9.15
2023-04-20T09:51:43.870Z,7.70
2023-04-20T09:54:10.816Z,8.75
2023-04-20T09:56:39.327Z,8.80
2023-04-20T09:59:07.771Z,9.98
2023-04-20T10:01:35.522Z,8.15
2023-04-20T10:04:04.022Z,10.20
2023-04-20T10:06:33.052Z,9.70
2023-04-20T10:09:02.594Z,9.52
2023-04-20T10:11:51.697Z,10.13
2023-04-20T10:14:25.329Z,10.43
2023-04-20T10:17:05.326Z,8.63
2023-04-20T10:19:45.857Z,9.40
2023-04-20T10:22:25.297Z,8.95
2023-04-20T10:24:51.850Z,8.85
2023-04-20T10:27:19.390Z,9.07
2023-04-20T10:29:46.248Z,8.43
2023-04-20T10:32:22.792Z,9.00
2023-04-20T10:35:04.369Z,8.57
2023-04-20T10:37:30.896Z,8.80
2023-04-20T10:39:57.783Z,9.00
2023-04-20T10:42:24.359Z,7.57
2023-04-20T10:44:52.236Z,8.00
2023-04-20T10:47:27.582Z,8.10
2023-04-20T10:49:54.357Z,8.68
2023-04-20T10:52:33.215Z,8.95
2023-04-20T10:54:59.860Z,9.30
2023-04-20T10:57:26.285Z,8.77
2023-04-20T10:59:52.790Z,8.05
2023-04-20T11:02:19.446Z,8.55
2023-04-20T11:04:46.240Z,8.30
2023-04-20T11:07:14.143Z,8.02
2023-04-20T11:09:41.025Z,8.77
2023-04-20T11:12:12.291Z,9.52
2023-04-20T11:14:50.532Z,8.93
2023-04-20T11:17:17.159Z,9.32
2023-04-20T11:19:43.566Z,10.27
2023-04-20T11:22:21.542Z,10.70
2023-04-20T11:24:48.408Z,9.88
2023-04-20T11:27:22.168Z,10.63
2023-04-20T11:29:59.159Z,10.10
2023-04-20T11:32:27.578Z,10.43
2023-04-20T11:35:12.136Z,10.20
2023-04-20T11:37:51.624Z,9.80
2023-04-20T11:40:18.648Z,10.07
2023-04-20T11:42:45.201Z,9.90
2023-04-20T11:45:12.040Z,11.40
2023-04-20T11:47:39.182Z,10.25
2023-04-20T11:50:06.210Z,9.98
2023-04-20T11:52:32.734Z,9.15
2023-04-20T11:54:59.395Z,9.88
2023-04-20T11:57:25.918Z,10.50
2023-04-20T11:59:52.314Z,10.30
2023-04-20T12:02:18.862Z,10.23
2023-04-20T12:04:45.464Z,9.32
2023-04-20T12:07:12.199Z,10.45
2023-04-20T12:09:38.760Z,9.43
2023-04-20T12:12:05.890Z,8.40
2023-04-20T12:14:32.938Z,8.88
2023-04-20T12:17:00.473Z,9.35
2023-04-20T12:19:27.069Z,9.07
2023-04-20T12:21:53.480Z,8.95
2023-04-20T12:24:19.922Z,8.85
2023-04-20T12:26:46.391Z,8.70
2023-04-20T12:29:12.802Z,8.88
2023-04-20T12:31:39.567Z,9.23
2023-04-20T12:34:06.535Z,9.52
2023-04-20T12:36:33.056Z,8.82
2023-04-20T12:38:59.447Z,9.23
2023-04-20T12:41:29.678Z,9.25
2023-04-20T12:43:56.253Z,8.38
2023-04-20T12:46:23.140Z,8.70
2023-04-20T12:48:49.865Z,8.88
2023-04-20T12:51:16.292Z,8.63
2023-04-20T12:53:42.779Z,9.30
2023-04-20T12:56:09.977Z,8.95
2023-04-20T12:58:36.490Z,9.10
2023-04-20T13:01:03.700Z,9.68
2023-04-20T13:03:30.392Z,8.98
2023-04-20T13:05:57.293Z,9.30
2023-04-20T13:08:23.803Z,7.93
2023-04-20T13:10:50.475Z,8.35
2023-04-20T13:13:20.102Z,9.25
2023-04-20T13:15:46.529Z,7.78
2023-04-20T13:18:13.188Z,7.30
2023-04-20T13:20:39.675Z,7.78
2023-04-20T13:23:06.604Z,7.38
2023-04-20T13:25:39.380Z,8.55
2023-04-20T13:28:11.601Z,8.25
2023-04-20T13:30:39.025Z,8.60
2023-04-20T13:33:05.509Z,7.60
2023-04-20T13:35:33.303Z,8.82
2023-04-20T13:38:00.403Z,8.10
2023-04-20T13:40:27.741Z,7.60
2023-04-20T13:43:06.594Z,7.43
2023-04-20T13:45:33.272Z,7.32
2023-04-20T13:47:59.726Z,7.25
2023-04-20T13:50:26.370Z,7.47
2023-04-20T13:52:54.099Z,7.88
2023-04-20T13:55:20.953Z,7.55
2023-04-20T13:57:48.030Z,7.35
2023-04-20T14:00:14.835Z,8.23
2023-04-20T14:02:43.207Z,7.47
2023-04-20T14:05:10.615Z,7.65
2023-04-20T14:07:38.067Z,7.40
2023-04-20T14:10:05.066Z,6.90
2023-04-20T14:12:32.277Z,7.53
2023-04-20T14:14:59.724Z,7.25
2023-04-20T14:17:27.111Z,7.57
2023-04-20T14:19:54.671Z,8.50
2023-04-20T14:22:22.400Z,8.00
2023-04-20T14:24:49.838Z,7.53
2023-04-20T14:27:17.120Z,8.48
2023-04-20T14:29:43.631Z,8.82
2023-04-20T14:32:09.927Z,8.43
2023-04-20T14:34:36.426Z,8.15
2023-04-20T14:37:02.851Z,8.50
2023-04-20T14:39:29.414Z,8.05
2023-04-20T14:41:55.841Z,8.35
2023-04-20T14:44:22.349Z,8.85
2023-04-20T14:46:49.144Z,9.65
2023-04-20T14:49:15.589Z,9.35
2023-04-20T14:51:42.374Z,10.07
2023-04-20T14:54:12.518Z,9.68
2023-04-20T14:56:39.688Z,9.73
2023-04-20T14:59:06.387Z,10.05
2023-04-20T15:01:34.195Z,10.88
2023-04-20T15:04:02.601Z,10.63
2023-04-20T15:06:29.268Z,12.20
2023-04-20T15:08:56.353Z,11.23
2023-04-20T15:11:23.122Z,10.75
2023-04-20T15:13:49.884Z,12.50
2023-04-20T15:16:16.553Z,11.30
2023-04-20T15:18:43.365Z,10.13
2023-04-20T15:21:10.103Z,11.07
2023-04-20T15:23:37.220Z,10.10
2023-04-20T15:26:04.028Z,11.63
2023-04-20T15:28:31.052Z,11.48
2023-04-20T15:30:59.614Z,12.57
2023-04-20T15:33:27.100Z,12.68
2023-04-20T15:35:53.746Z,11.73
2023-04-20T15:38:20.097Z,12.10
2023-04-20T15:40:46.504Z,11.63
2023-04-20T15:43:13.773Z,11.50
2023-04-20T15:45:41.294Z,11.43
2023-04-20T15:48:10.976Z,12.10
2023-04-20T15:50:37.424Z,11.18
2023-04-20T15:53:04.137Z,11.75
2023-04-20T15:55:30.731Z,11.20
2023-04-20T15:57:57.174Z,12.00
2023-04-20T16:00:24.800Z,12.40
2023-04-20T16:02:51.608Z,11.40
2023-04-20T16:05:18.237Z,12.43
2023-04-20T16:07:44.572Z,12.73
2023-04-20T16:10:14.390Z,11.75
2023-04-20T16:12:40.837Z,12.25
2023-04-20T16:15:08.206Z,12.35
2023-04-20T16:17:38.827Z,11.07
2023-04-20T16:20:08.298Z,12.10
2023-04-20T16:22:34.838Z,11.25
2023-04-20T16:25:02.028Z,12.27
2023-04-20T16:27:30.676Z,10.98
2023-04-20T16:29:57.033Z,11.38
2023-04-20T16:32:23.661Z,11.93
2023-04-20T16:34:50.228Z,11.32
2023-04-20T16:37:19.607Z,11.82
2023-04-20T16:39:46.398Z,11.80
2023-04-20T16:42:12.889Z,10.98
2023-04-20T16:44:41.851Z,11.52
2023-04-20T16:47:10.860Z,12.13
2023-04-20T16:49:37.877Z,12.35
2023-04-20T16:52:04.365Z,10.93
2023-04-20T16:54:31.466Z,11.70
2023-04-20T16:57:03.824Z,11.30
2023-04-20T16:59:30.150Z,9.07
2023-04-20T17:01:58.307Z,9.68
2023-04-20T17:04:24.894Z,9.32
2023-04-20T17:06:51.373Z,10.32
2023-04-20T17:09:18.083Z,9.35
2023-04-20T17:11:44.951Z,10.80
2023-04-20T17:14:11.658Z,11.02
2023-04-20T17:16:38.402Z,10.20
2023-04-20T17:19:04.893Z,11.57
2023-04-20T17:21:31.483Z,11.27
2023-04-20T17:23:58.406Z,10.00
2023-04-20T17:26:24.940Z,11.30
2023-04-20T17:28:51.674Z,10.20
2023-04-20T17:31:23.743Z,11.23
2023-04-20T17:33:50.092Z,12.63
2023-04-20T17:36:16.535Z,11.23
2023-04-20T17:38:47.840Z,11.63
2023-04-20T17:41:14.239Z,10.35
2023-04-20T17:43:40.684Z,12.38
2023-04-20T17:46:07.542Z,9.70
2023-04-20T17:48:34.275Z,13.27
2023-04-20T17:51:00.790Z,11.45
2023-04-20T17:53:27.455Z,11.40
2023-04-20T17:55:53.907Z,11.07
2023-04-20T17:58:20.610Z,10.27
2023-04-20T18:00:47.186Z,9.05
2023-04-20T18:03:19.613Z,9.32
2023-04-20T18:05:48.152Z,9.65
2023-04-20T18:08:14.480Z,10.68
2023-04-20T18:10:41.572Z,9.70
2023-04-20T18:13:08.307Z,9.60
2023-04-20T18:15:34.897Z,9.38
2023-04-20T18:18:11.566Z,8.73
2023-04-20T18:20:38.122Z,9.43
2023-04-20T18:23:04.560Z,9.40
2023-04-20T18:25:31.323Z,10.05
2023-04-20T18:27:57.754Z,10.88
2023-04-20T18:30:28.804Z,10.88
2023-04-20T18:32:55.708Z,10.32
2023-04-20T18:35:22.182Z,10.45
2023-04-20T18:37:48.859Z,10.73
2023-04-20T18:40:16.447Z,11.07
2023-04-20T18:42:44.497Z,10.63
2023-04-20T18:45:11.194Z,10.02
2023-04-20T18:47:37.848Z,11.32
2023-04-20T18:50:07.141Z,12.30
2023-04-20T18:52:33.951Z,13.32
2023-04-20T18:55:01.248Z,12.98
2023-04-20T18:57:29.606Z,12.38
2023-04-20T18:59:56.306Z,14.70
2023-04-20T19:02:23.462Z,16.20
2023-04-20T19:04:50.352Z,15.73
2023-04-20T19:07:17.751Z,15.23
2023-04-20T19:09:45.426Z,14.57
2023-04-20T19:12:11.849Z,13.98
2023-04-20T19:14:38.291Z,13.30
2023-04-20T19:17:06.826Z,13.85
2023-04-20T19:19:34.658Z,13.52
2023-04-20T19:22:03.197Z,14.25
2023-04-20T19:24:33.107Z,14.32
2023-04-20T19:26:59.616Z,13.57
2023-04-20T19:29:27.298Z,13.80
2023-04-20T19:31:53.911Z,13.48
2023-04-20T19:34:21.331Z,16.08
2023-04-20T19:36:48.428Z,16.20
2023-04-20T19:39:15.086Z,12.90
2023-04-20T19:41:41.617Z,15.95
2023-04-20T19:44:08.305Z,15.32
2023-04-20T19:46:34.868Z,17.50
2023-04-20T19:49:06.218Z,15.75
2023-04-20T19:51:33.200Z,14.48
2023-04-20T19:54:01.562Z,15.20
2023-04-20T19:56:27.995Z,15.65
2023-04-20T19:58:54.899Z,14.55
2023-04-20T20:01:21.340Z,14.70
2023-04-20T20:03:48.068Z,16.25
2023-04-20T20:06:14.582Z,16.05
2023-04-20T20:08:41.467Z,17.42
2023-04-20T20:11:08.144Z,16.25
2023-04-20T20:13:34.664Z,17.25
2023-04-20T20:16:01.156Z,18.23
2023-04-20T20:18:27.691Z,17.42
2023-04-20T20:20:54.495Z,17.65
2023-04-20T20:23:20.940Z,17.55
2023-04-20T20:25:49.195Z,18.45
2023-04-20T20:28:15.643Z,17.02
2023-04-20T20:30:42.181Z,16.70
2023-04-20T20:33:11.134Z,15.23
2023-04-20T20:35:37.855Z,15.68
2023-04-20T20:38:04.705Z,16.90
2023-04-20T20:40:32.671Z,17.67
2023-04-20T20:42:59.835Z,17.60
2023-04-20T20:45:27.037Z,19.92
2023-04-20T20:47:53.805Z,17.58
2023-04-20T20:50:20.346Z,17.77
2023-04-20T20:52:47.156Z,17.35
2023-04-20T20:55:15.129Z,17.10
2023-04-20T20:57:41.671Z,19.20
2023-04-20T21:00:10.623Z,16.45
2023-04-20T21:02:37.427Z,18.35
2023-04-20T21:05:04.539Z,16.27
2023-04-20T21:07:31.329Z,17.27
2023-04-20T21:09:58.551Z,16.88
2023-04-20T21:12:27.692Z,17.38
2023-04-20T21:14:54.286Z,16.65
2023-04-20T21:17:24.538Z,16.90
2023-04-20T21:19:51.232Z,18.95
2023-04-20T21:22:17.618Z,18.45
2023-04-20T21:24:44.120Z,18.52
2023-04-20T21:27:10.492Z,18.52
2023-04-20T21:29:36.897Z,16.83
2023-04-20T21:32:03.646Z,15.77
2023-04-20T21:34:30.114Z,13.93
2023-04-20T21:36:56.803Z,13.48
2023-04-20T21:39:23.233Z,14.18
2023-04-20T21:41:49.715Z,14.23
2023-04-20T21:44:16.153Z,14.02
2023-04-20T21:46:42.900Z,13.70
2023-04-20T21:49:09.311Z,13.73
2023-04-20T21:51:35.641Z,15.45
2023-04-20T21:54:02.332Z,15.85
2023-04-20T21:56:28.686Z,15.15
2023-04-20T21:58:56.155Z,14.95
2023-04-20T22:01:23.245Z,16.38
2023-04-20T22:03:49.907Z,15.95
2023-04-20T22:06:16.494Z,16.45
2023-04-20T22:08:42.962Z,16.88
2023-04-20T22:11:10.648Z,16.10
2023-04-20T22:13:37.235Z,15.85
2023-04-20T22:16:04.092Z,17.00
2023-04-20T22:18:30.584Z,16.05
2023-04-20T22:20:56.953Z,17.10
2023-04-20T22:23:23.811Z,17.70
2023-04-20T22:25:50.156Z,16.52
2023-04-20T22:28:16.905Z,17.33
2023-04-20T22:30:43.376Z,18.17
2023-04-20T22:33:10.035Z,19.80
2023-04-20T22:35:36.810Z,19.85
2023-04-20T22:38:03.257Z,18.38
2023-04-20T22:40:29.782Z,18.05
2023-04-20T22:42:56.430Z,18.40
2023-04-20T22:45:23.177Z,20.02
2023-04-20T22:47:50.861Z,18.83
2023-04-20T22:50:17.321Z,18.63
2023-04-20T22:52:44.623Z,20.25
2023-04-20T22:55:11.109Z,19.60
2023-04-20T22:57:38.689Z,19.80
2023-04-20T23:00:07.056Z,19.38
2023-04-20T23:02:34.148Z,18.45
2023-04-20T23:05:00.807Z,18.48
2023-04-20T23:07:27.498Z,18.25
2023-04-20T23:09:53.885Z,17.08
2023-04-20T23:12:20.385Z,19.58
2023-04-20T23:14:46.709Z,20.27
2023-04-20T23:17:13.565Z,20.02
2023-04-20T23:19:40.007Z,18.30
2023-04-20T23:22:06.666Z,20.10
2023-04-20T23:24:33.333Z,19.63
2023-04-20T23:27:00.873Z,20.17
2023-04-20T23:29:28.771Z,19.67
2023-04-20T23:31:56.565Z,19.55
2023-04-20T23:34:23.078Z,20.70
2023-04-20T23:36:49.454Z,20.60
2023-04-20T23:39:16.353Z,20.20
2023-04-20T23:41:43.911Z,20.73
2023-04-20T23:44:11.495Z,20.08
2023-04-20T23:46:38.254Z,20.92
2023-04-20T23:49:04.709Z,21.45
2023-04-20T23:51:31.428Z,20.20
2023-04-20T23:53:57.848Z,21.08
2023-04-20T23:56:24.330Z,20.67
2023-04-20T23:58:50.840Z,20.65
